sensor_id;sensor_type;location;lat;lon;timestamp;P1;durP1;ratioP1;P2;durP2;ratioP2
23317;SDS011;11831;55.918;37.746;2023-08-06T00:01:49;17.25;;;12.75;;
23317;SDS011;11831;55.918;37.746;2023-08-06T00:04:16;17.70;;;12.20;;
23317;SDS011;11831;55.918;37.746;2023-08-06T00:06:42;21.73;;;12.60;;
23317;SDS011;11831;55.918;37.746;2023-08-06T00:09:09;17.12;;;12.25;;
23317;SDS011;11831;55.918;37.746;2023-08-06T00:11:35;18.60;;;12.45;;
23317;SDS011;11831;55.918;37.746;2023-08-06T00:14:02;20.48;;;12.25;;
23317;SDS011;11831;55.918;37.746;2023-08-06T00:16:28;18.95;;;12.32;;
23317;SDS011;11831;55.918;37.746;2023-08-06T00:18:55;18.67;;;12.57;;
23317;SDS011;11831;55.918;37.746;2023-08-06T00:21:21;18.80;;;12.55;;
23317;SDS011;11831;55.918;37.746;2023-08-06T00:23:48;20.25;;;12.98;;
23317;SDS011;11831;55.918;37.746;2023-08-06T00:26:14;17.10;;;11.20;;
23317;SDS011;11831;55.918;37.746;2023-08-06T00:28:40;21.58;;;11.98;;
23317;SDS011;11831;55.918;37.746;2023-08-06T00:31:07;17.27;;;12.10;;
23317;SDS011;11831;55.918;37.746;2023-08-06T00:33:33;20.20;;;11.93;;
23317;SDS011;11831;55.918;37.746;2023-08-06T00:36:00;17.70;;;12.18;;
23317;SDS011;11831;55.918;37.746;2023-08-06T00:38:26;20.12;;;12.45;;
23317;SDS011;11831;55.918;37.746;2023-08-06T00:40:53;21.90;;;13.00;;
23317;SDS011;11831;55.918;37.746;2023-08-06T00:43:19;23.25;;;12.48;;
23317;SDS011;11831;55.918;37.746;2023-08-06T00:45:45;19.85;;;13.13;;
23317;SDS011;11831;55.918;37.746;2023-08-06T00:48:12;18.15;;;12.57;;
23317;SDS011;11831;55.918;37.746;2023-08-06T00:50:39;17.85;;;12.48;;
23317;SDS011;11831;55.918;37.746;2023-08-06T00:53:05;17.17;;;12.98;;
23317;SDS011;11831;55.918;37.746;2023-08-06T00:55:32;16.70;;;12.43;;
23317;SDS011;11831;55.918;37.746;2023-08-06T00:57:59;16.45;;;12.10;;
23317;SDS011;11831;55.918;37.746;2023-08-06T01:00:26;17.90;;;11.65;;
23317;SDS011;11831;55.918;37.746;2023-08-06T01:02:53;18.20;;;11.88;;
23317;SDS011;11831;55.918;37.746;2023-08-06T01:05:20;16.62;;;11.27;;
23317;SDS011;11831;55.918;37.746;2023-08-06T01:15:43;19.58;;;11.52;;
23317;SDS011;11831;55.918;37.746;2023-08-06T01:18:13;16.92;;;11.73;;
23317;SDS011;11831;55.918;37.746;2023-08-06T01:20:40;15.02;;;11.35;;
23317;SDS011;11831;55.918;37.746;2023-08-06T01:23:06;18.40;;;12.15;;
23317;SDS011;11831;55.918;37.746;2023-08-06T01:25:41;17.08;;;12.55;;
23317;SDS011;11831;55.918;37.746;2023-08-06T01:31:21;15.30;;;12.15;;
23317;SDS011;11831;55.918;37.746;2023-08-06T01:33:50;16.23;;;12.60;;
23317;SDS011;11831;55.918;37.746;2023-08-06T01:36:19;16.77;;;13.93;;
23317;SDS011;11831;55.918;37.746;2023-08-06T01:38:46;19.75;;;12.93;;
23317;SDS011;11831;55.918;37.746;2023-08-06T01:41:13;23.10;;;12.37;;
23317;SDS011;11831;55.918;37.746;2023-08-06T01:43:43;16.07;;;11.83;;
23317;SDS011;11831;55.918;37.746;2023-08-06T01:46:09;17.02;;;12.10;;
23317;SDS011;11831;55.918;37.746;2023-08-06T01:48:36;18.70;;;12.50;;
23317;SDS011;11831;55.918;37.746;2023-08-06T01:51:06;18.55;;;11.65;;
23317;SDS011;11831;55.918;37.746;2023-08-06T01:53:33;17.98;;;11.98;;
23317;SDS011;11831;55.918;37.746;2023-08-06T01:55:59;17.80;;;11.43;;
23317;SDS011;11831;55.918;37.746;2023-08-06T01:58:26;16.50;;;12.32;;
23317;SDS011;11831;55.918;37.746;2023-08-06T02:00:52;18.10;;;11.75;;
23317;SDS011;11831;55.918;37.746;2023-08-06T02:03:18;18.30;;;11.65;;
23317;SDS011;11831;55.918;37.746;2023-08-06T02:05:45;15.23;;;10.68;;
23317;SDS011;11831;55.918;37.746;2023-08-06T02:08:11;15.35;;;11.65;;
23317;SDS011;11831;55.918;37.746;2023-08-06T02:10:38;18.17;;;12.23;;
23317;SDS011;11831;55.918;37.746;2023-08-06T02:13:04;16.27;;;11.52;;
23317;SDS011;11831;55.918;37.746;2023-08-06T02:15:31;17.42;;;11.55;;
23317;SDS011;11831;55.918;37.746;2023-08-06T02:17:58;18.75;;;12.07;;
23317;SDS011;11831;55.918;37.746;2023-08-06T02:20:44;18.55;;;11.82;;
23317;SDS011;11831;55.918;37.746;2023-08-06T02:23:22;16.52;;;11.12;;
23317;SDS011;11831;55.918;37.746;2023-08-06T02:25:56;17.25;;;11.85;;
23317;SDS011;11831;55.918;37.746;2023-08-06T02:28:23;15.05;;;11.00;;
23317;SDS011;11831;55.918;37.746;2023-08-06T02:30:50;17.20;;;11.02;;
23317;SDS011;11831;55.918;37.746;2023-08-06T02:33:17;18.30;;;11.70;;
23317;SDS011;11831;55.918;37.746;2023-08-06T02:35:44;15.23;;;11.00;;
23317;SDS011;11831;55.918;37.746;2023-08-06T02:38:10;16.23;;;11.02;;
23317;SDS011;11831;55.918;37.746;2023-08-06T02:40:36;17.85;;;10.85;;
23317;SDS011;11831;55.918;37.746;2023-08-06T02:43:10;17.23;;;11.18;;
23317;SDS011;11831;55.918;37.746;2023-08-06T02:45:37;14.87;;;11.43;;
23317;SDS011;11831;55.918;37.746;2023-08-06T02:48:03;16.17;;;10.60;;
23317;SDS011;11831;55.918;37.746;2023-08-06T02:50:30;17.45;;;10.65;;
23317;SDS011;11831;55.918;37.746;2023-08-06T02:52:56;15.95;;;11.25;;
23317;SDS011;11831;55.918;37.746;2023-08-06T02:55:22;13.45;;;10.40;;
23317;SDS011;11831;55.918;37.746;2023-08-06T02:57:49;17.35;;;11.23;;
23317;SDS011;11831;55.918;37.746;2023-08-06T03:00:15;13.82;;;10.38;;
23317;SDS011;11831;55.918;37.746;2023-08-06T03:02:42;18.30;;;10.55;;
23317;SDS011;11831;55.918;37.746;2023-08-06T03:05:08;18.30;;;11.02;;
23317;SDS011;11831;55.918;37.746;2023-08-06T03:07:34;14.40;;;10.15;;
23317;SDS011;11831;55.918;37.746;2023-08-06T03:10:03;19.50;;;10.90;;
23317;SDS011;11831;55.918;37.746;2023-08-06T03:12:30;17.17;;;10.68;;
23317;SDS011;11831;55.918;37.746;2023-08-06T03:14:56;15.32;;;11.27;;
23317;SDS011;11831;55.918;37.746;2023-08-06T03:17:22;13.85;;;11.05;;
23317;SDS011;11831;55.918;37.746;2023-08-06T03:19:49;17.27;;;11.20;;
23317;SDS011;11831;55.918;37.746;2023-08-06T03:22:15;18.67;;;11.30;;
23317;SDS011;11831;55.918;37.746;2023-08-06T03:24:41;17.02;;;11.82;;
23317;SDS011;11831;55.918;37.746;2023-08-06T03:27:08;18.37;;;11.73;;
23317;SDS011;11831;55.918;37.746;2023-08-06T03:29:34;15.95;;;10.82;;
23317;SDS011;11831;55.918;37.746;2023-08-06T03:32:01;17.52;;;11.45;;
23317;SDS011;11831;55.918;37.746;2023-08-06T03:34:27;18.62;;;11.55;;
23317;SDS011;11831;55.918;37.746;2023-08-06T03:36:53;21.58;;;11.90;;
23317;SDS011;11831;55.918;37.746;2023-08-06T03:39:20;15.30;;;11.60;;
23317;SDS011;11831;55.918;37.746;2023-08-06T03:41:46;19.10;;;11.43;;
23317;SDS011;11831;55.918;37.746;2023-08-06T03:44:13;14.85;;;11.35;;
23317;SDS011;11831;55.918;37.746;2023-08-06T03:46:39;16.35;;;11.43;;
23317;SDS011;11831;55.918;37.746;2023-08-06T03:49:06;18.65;;;11.35;;
23317;SDS011;11831;55.918;37.746;2023-08-06T03:51:32;17.62;;;11.57;;
23317;SDS011;11831;55.918;37.746;2023-08-06T03:53:59;18.02;;;11.12;;
23317;SDS011;11831;55.918;37.746;2023-08-06T03:56:25;17.65;;;10.93;;
23317;SDS011;11831;55.918;37.746;2023-08-06T03:58:51;18.40;;;11.40;;
23317;SDS011;11831;55.918;37.746;2023-08-06T04:01:18;17.58;;;11.80;;
23317;SDS011;11831;55.918;37.746;2023-08-06T04:03:44;14.65;;;10.82;;
23317;SDS011;11831;55.918;37.746;2023-08-06T04:06:11;17.58;;;11.25;;
23317;SDS011;11831;55.918;37.746;2023-08-06T04:08:37;16.95;;;10.63;;
23317;SDS011;11831;55.918;37.746;2023-08-06T04:11:04;15.25;;;10.65;;
23317;SDS011;11831;55.918;37.746;2023-08-06T04:13:30;16.30;;;10.15;;
23317;SDS011;11831;55.918;37.746;2023-08-06T04:16:00;13.88;;;10.60;;
23317;SDS011;11831;55.918;37.746;2023-08-06T04:18:28;14.07;;;10.68;;
23317;SDS011;11831;55.918;37.746;2023-08-06T04:20:54;13.65;;;10.82;;
23317;SDS011;11831;55.918;37.746;2023-08-06T04:23:23;13.77;;;10.60;;
23317;SDS011;11831;55.918;37.746;2023-08-06T04:25:50;17.58;;;11.00;;
23317;SDS011;11831;55.918;37.746;2023-08-06T04:28:17;11.68;;;10.48;;
23317;SDS011;11831;55.918;37.746;2023-08-06T04:30:43;12.48;;;9.63;;
23317;SDS011;11831;55.918;37.746;2023-08-06T04:33:10;14.60;;;10.50;;
23317;SDS011;11831;55.918;37.746;2023-08-06T04:35:36;15.73;;;9.43;;
23317;SDS011;11831;55.918;37.746;2023-08-06T04:38:03;13.70;;;10.23;;
23317;SDS011;11831;55.918;37.746;2023-08-06T04:40:29;12.50;;;10.00;;
23317;SDS011;11831;55.918;37.746;2023-08-06T04:42:55;15.70;;;9.40;;
23317;SDS011;11831;55.918;37.746;2023-08-06T04:45:22;11.20;;;9.38;;
23317;SDS011;11831;55.918;37.746;2023-08-06T04:47:50;15.77;;;9.63;;
23317;SDS011;11831;55.918;37.746;2023-08-06T04:50:16;13.07;;;8.82;;
23317;SDS011;11831;55.918;37.746;2023-08-06T04:52:43;12.15;;;9.05;;
23317;SDS011;11831;55.918;37.746;2023-08-06T04:55:10;13.80;;;9.88;;
23317;SDS011;11831;55.918;37.746;2023-08-06T04:57:36;15.15;;;9.45;;
23317;SDS011;11831;55.918;37.746;2023-08-06T05:00:03;14.45;;;9.55;;
23317;SDS011;11831;55.918;37.746;2023-08-06T05:02:30;12.68;;;9.13;;
23317;SDS011;11831;55.918;37.746;2023-08-06T05:04:58;13.48;;;9.25;;
23317;SDS011;11831;55.918;37.746;2023-08-06T05:07:24;12.00;;;8.82;;
23317;SDS011;11831;55.918;37.746;2023-08-06T05:09:51;12.80;;;9.15;;
23317;SDS011;11831;55.918;37.746;2023-08-06T05:12:17;13.55;;;8.45;;
23317;SDS011;11831;55.918;37.746;2023-08-06T05:14:43;15.35;;;9.30;;
23317;SDS011;11831;55.918;37.746;2023-08-06T05:17:10;11.88;;;8.50;;
23317;SDS011;11831;55.918;37.746;2023-08-06T05:19:36;16.58;;;9.25;;
23317;SDS011;11831;55.918;37.746;2023-08-06T05:22:03;11.35;;;8.07;;
23317;SDS011;11831;55.918;37.746;2023-08-06T05:24:29;16.77;;;8.93;;
23317;SDS011;11831;55.918;37.746;2023-08-06T05:26:56;10.35;;;8.23;;
23317;SDS011;11831;55.918;37.746;2023-08-06T05:29:22;13.45;;;8.70;;
23317;SDS011;11831;55.918;37.746;2023-08-06T05:31:48;13.45;;;7.90;;
23317;SDS011;11831;55.918;37.746;2023-08-06T05:34:15;12.57;;;8.50;;
23317;SDS011;11831;55.918;37.746;2023-08-06T05:36:41;14.27;;;8.85;;
23317;SDS011;11831;55.918;37.746;2023-08-06T05:39:08;15.77;;;8.70;;
23317;SDS011;11831;55.918;37.746;2023-08-06T05:41:34;13.43;;;8.75;;
23317;SDS011;11831;55.918;37.746;2023-08-06T05:44:00;11.60;;;7.85;;
23317;SDS011;11831;55.918;37.746;2023-08-06T05:46:26;16.62;;;8.38;;
23317;SDS011;11831;55.918;37.746;2023-08-06T05:48:53;15.98;;;8.45;;
23317;SDS011;11831;55.918;37.746;2023-08-06T05:51:19;9.45;;;7.62;;
23317;SDS011;11831;55.918;37.746;2023-08-06T05:53:46;11.10;;;7.60;;
23317;SDS011;11831;55.918;37.746;2023-08-06T05:56:12;12.07;;;7.55;;
23317;SDS011;11831;55.918;37.746;2023-08-06T05:58:39;11.70;;;7.18;;
23317;SDS011;11831;55.918;37.746;2023-08-06T06:01:05;11.55;;;6.93;;
23317;SDS011;11831;55.918;37.746;2023-08-06T06:03:32;11.82;;;7.15;;
23317;SDS011;11831;55.918;37.746;2023-08-06T06:05:59;10.00;;;6.60;;
23317;SDS011;11831;55.918;37.746;2023-08-06T06:08:27;9.35;;;6.22;;
23317;SDS011;11831;55.918;37.746;2023-08-06T06:10:53;10.05;;;6.28;;
23317;SDS011;11831;55.918;37.746;2023-08-06T06:13:20;10.77;;;6.53;;
23317;SDS011;11831;55.918;37.746;2023-08-06T06:15:46;12.75;;;6.20;;
23317;SDS011;11831;55.918;37.746;2023-08-06T06:18:13;7.28;;;6.20;;
23317;SDS011;11831;55.918;37.746;2023-08-06T06:20:39;8.02;;;5.75;;
23317;SDS011;11831;55.918;37.746;2023-08-06T06:23:05;9.65;;;5.78;;
23317;SDS011;11831;55.918;37.746;2023-08-06T06:25:32;10.07;;;5.78;;
23317;SDS011;11831;55.918;37.746;2023-08-06T06:27:58;10.35;;;6.07;;
23317;SDS011;11831;55.918;37.746;2023-08-06T06:30:24;8.30;;;6.03;;
23317;SDS011;11831;55.918;37.746;2023-08-06T06:32:51;9.43;;;5.62;;
23317;SDS011;11831;55.918;37.746;2023-08-06T06:35:17;10.23;;;5.70;;
23317;SDS011;11831;55.918;37.746;2023-08-06T06:37:44;9.32;;;5.65;;
23317;SDS011;11831;55.918;37.746;2023-08-06T06:40:10;6.55;;;5.45;;
23317;SDS011;11831;55.918;37.746;2023-08-06T06:42:37;6.12;;;5.37;;
23317;SDS011;11831;55.918;37.746;2023-08-06T06:45:04;7.28;;;4.97;;
23317;SDS011;11831;55.918;37.746;2023-08-06T06:47:31;7.20;;;5.55;;
23317;SDS011;11831;55.918;37.746;2023-08-06T06:49:57;7.12;;;5.28;;
23317;SDS011;11831;55.918;37.746;2023-08-06T06:52:24;10.80;;;5.78;;
23317;SDS011;11831;55.918;37.746;2023-08-06T06:54:50;9.13;;;5.55;;
23317;SDS011;11831;55.918;37.746;2023-08-06T06:57:16;9.00;;;5.20;;
23317;SDS011;11831;55.918;37.746;2023-08-06T06:59:42;7.43;;;5.20;;
23317;SDS011;11831;55.918;37.746;2023-08-06T07:02:09;8.18;;;5.28;;
23317;SDS011;11831;55.918;37.746;2023-08-06T07:04:35;10.50;;;4.93;;
23317;SDS011;11831;55.918;37.746;2023-08-06T07:07:01;9.63;;;4.97;;
23317;SDS011;11831;55.918;37.746;2023-08-06T07:09:28;13.27;;;5.07;;
23317;SDS011;11831;55.918;37.746;2023-08-06T07:11:54;11.00;;;5.18;;
23317;SDS011;11831;55.918;37.746;2023-08-06T07:14:20;6.45;;;4.12;;
23317;SDS011;11831;55.918;37.746;2023-08-06T07:16:47;9.60;;;4.72;;
23317;SDS011;11831;55.918;37.746;2023-08-06T07:19:13;8.32;;;4.70;;
23317;SDS011;11831;55.918;37.746;2023-08-06T07:21:39;5.82;;;5.05;;
23317;SDS011;11831;55.918;37.746;2023-08-06T07:24:05;8.23;;;4.95;;
23317;SDS011;11831;55.918;37.746;2023-08-06T07:26:32;12.37;;;5.15;;
23317;SDS011;11831;55.918;37.746;2023-08-06T07:28:58;8.55;;;4.97;;
23317;SDS011;11831;55.918;37.746;2023-08-06T07:31:25;5.85;;;4.43;;
23317;SDS011;11831;55.918;37.746;2023-08-06T07:33:51;6.10;;;4.45;;
23317;SDS011;11831;55.918;37.746;2023-08-06T07:36:17;9.48;;;4.47;;
23317;SDS011;11831;55.918;37.746;2023-08-06T07:38:44;11.00;;;5.22;;
23317;SDS011;11831;55.918;37.746;2023-08-06T07:41:10;7.28;;;4.55;;
23317;SDS011;11831;55.918;37.746;2023-08-06T07:43:37;5.97;;;5.30;;
23317;SDS011;11831;55.918;37.746;2023-08-06T07:46:03;8.68;;;5.10;;
23317;SDS011;11831;55.918;37.746;2023-08-06T07:48:29;8.00;;;4.57;;
23317;SDS011;11831;55.918;37.746;2023-08-06T07:50:56;11.52;;;5.22;;
23317;SDS011;11831;55.918;37.746;2023-08-06T07:53:23;8.48;;;5.12;;
23317;SDS011;11831;55.918;37.746;2023-08-06T07:55:53;9.30;;;5.55;;
23317;SDS011;11831;55.918;37.746;2023-08-06T07:58:20;10.00;;;5.70;;
23317;SDS011;11831;55.918;37.746;2023-08-06T08:00:46;7.32;;;5.12;;
23317;SDS011;11831;55.918;37.746;2023-08-06T08:03:14;7.70;;;5.30;;
23317;SDS011;11831;55.918;37.746;2023-08-06T08:05:41;8.25;;;5.28;;
23317;SDS011;11831;55.918;37.746;2023-08-06T08:08:08;7.80;;;5.43;;
23317;SDS011;11831;55.918;37.746;2023-08-06T08:10:34;7.37;;;5.53;;
23317;SDS011;11831;55.918;37.746;2023-08-06T08:13:02;5.55;;;4.93;;
23317;SDS011;11831;55.918;37.746;2023-08-06T08:15:29;8.27;;;5.62;;
23317;SDS011;11831;55.918;37.746;2023-08-06T08:17:56;8.23;;;4.87;;
23317;SDS011;11831;55.918;37.746;2023-08-06T08:20:22;7.20;;;5.05;;
23317;SDS011;11831;55.918;37.746;2023-08-06T08:22:49;6.10;;;4.60;;
23317;SDS011;11831;55.918;37.746;2023-08-06T08:25:16;6.10;;;5.50;;
23317;SDS011;11831;55.918;37.746;2023-08-06T08:27:42;8.05;;;5.15;;
23317;SDS011;11831;55.918;37.746;2023-08-06T08:30:08;5.35;;;4.68;;
23317;SDS011;11831;55.918;37.746;2023-08-06T08:32:35;8.63;;;5.15;;
23317;SDS011;11831;55.918;37.746;2023-08-06T08:35:01;7.62;;;5.43;;
23317;SDS011;11831;55.918;37.746;2023-08-06T08:37:29;9.13;;;5.35;;
23317;SDS011;11831;55.918;37.746;2023-08-06T08:39:56;7.10;;;5.10;;
23317;SDS011;11831;55.918;37.746;2023-08-06T08:42:22;11.65;;;5.75;;
23317;SDS011;11831;55.918;37.746;2023-08-06T08:44:49;8.80;;;5.30;;
23317;SDS011;11831;55.918;37.746;2023-08-06T08:47:15;5.55;;;5.03;;
23317;SDS011;11831;55.918;37.746;2023-08-06T08:49:42;7.78;;;5.05;;
23317;SDS011;11831;55.918;37.746;2023-08-06T08:52:09;6.47;;;5.40;;
23317;SDS011;11831;55.918;37.746;2023-08-06T08:54:38;7.20;;;5.78;;
23317;SDS011;11831;55.918;37.746;2023-08-06T08:57:06;8.43;;;5.50;;
23317;SDS011;11831;55.918;37.746;2023-08-06T08:59:33;6.72;;;4.90;;
23317;SDS011;11831;55.918;37.746;2023-08-06T09:02:02;8.73;;;5.32;;
23317;SDS011;11831;55.918;37.746;2023-08-06T09:04:29;7.50;;;5.87;;
23317;SDS011;11831;55.918;37.746;2023-08-06T09:07:01;9.27;;;5.40;;
23317;SDS011;11831;55.918;37.746;2023-08-06T09:09:31;11.38;;;5.50;;
23317;SDS011;11831;55.918;37.746;2023-08-06T09:12:03;9.57;;;5.57;;
23317;SDS011;11831;55.918;37.746;2023-08-06T09:14:34;8.70;;;5.30;;
23317;SDS011;11831;55.918;37.746;2023-08-06T09:17:01;7.45;;;5.50;;
23317;SDS011;11831;55.918;37.746;2023-08-06T09:19:27;7.72;;;5.30;;
23317;SDS011;11831;55.918;37.746;2023-08-06T09:21:55;10.25;;;5.65;;
23317;SDS011;11831;55.918;37.746;2023-08-06T09:24:21;7.65;;;5.60;;
23317;SDS011;11831;55.918;37.746;2023-08-06T09:26:48;7.95;;;5.30;;
23317;SDS011;11831;55.918;37.746;2023-08-06T09:29:14;7.55;;;5.45;;
23317;SDS011;11831;55.918;37.746;2023-08-06T09:34:16;10.95;;;5.40;;
23317;SDS011;11831;55.918;37.746;2023-08-06T09:36:46;6.57;;;4.82;;
23317;SDS011;11831;55.918;37.746;2023-08-06T09:39:20;5.68;;;5.07;;
23317;SDS011;11831;55.918;37.746;2023-08-06T09:41:48;6.70;;;4.57;;
23317;SDS011;11831;55.918;37.746;2023-08-06T09:44:19;6.62;;;4.32;;
23317;SDS011;11831;55.918;37.746;2023-08-06T09:46:50;10.63;;;5.55;;
23317;SDS011;11831;55.918;37.746;2023-08-06T09:49:43;7.43;;;5.47;;
23317;SDS011;11831;55.918;37.746;2023-08-06T09:52:13;9.00;;;5.37;;
23317;SDS011;11831;55.918;37.746;2023-08-06T09:57:09;9.82;;;5.30;;
23317;SDS011;11831;55.918;37.746;2023-08-06T09:59:37;8.25;;;4.90;;
23317;SDS011;11831;55.918;37.746;2023-08-06T10:02:06;8.38;;;5.50;;
23317;SDS011;11831;55.918;37.746;2023-08-06T10:04:40;9.20;;;4.95;;
23317;SDS011;11831;55.918;37.746;2023-08-06T10:07:10;6.70;;;4.45;;
23317;SDS011;11831;55.918;37.746;2023-08-06T10:09:36;6.12;;;5.40;;
23317;SDS011;11831;55.918;37.746;2023-08-06T10:12:03;5.40;;;4.95;;
23317;SDS011;11831;55.918;37.746;2023-08-06T10:14:32;9.55;;;5.40;;
23317;SDS011;11831;55.918;37.746;2023-08-06T10:17:00;8.18;;;5.25;;
23317;SDS011;11831;55.918;37.746;2023-08-06T10:19:27;5.78;;;4.95;;
23317;SDS011;11831;55.918;37.746;2023-08-06T10:24:57;6.40;;;4.70;;
23317;SDS011;11831;55.918;37.746;2023-08-06T10:32:55;5.65;;;5.00;;
23317;SDS011;11831;55.918;37.746;2023-08-06T10:38:16;7.05;;;5.30;;
23317;SDS011;11831;55.918;37.746;2023-08-06T10:41:00;7.25;;;5.47;;
23317;SDS011;11831;55.918;37.746;2023-08-06T10:43:36;8.15;;;5.12;;
23317;SDS011;11831;55.918;37.746;2023-08-06T10:46:10;6.72;;;5.40;;
23317;SDS011;11831;55.918;37.746;2023-08-06T10:48:39;6.55;;;5.50;;
23317;SDS011;11831;55.918;37.746;2023-08-06T10:51:10;7.87;;;5.40;;
23317;SDS011;11831;55.918;37.746;2023-08-06T10:53:38;7.12;;;5.55;;
23317;SDS011;11831;55.918;37.746;2023-08-06T10:58:51;7.57;;;5.25;;
23317;SDS011;11831;55.918;37.746;2023-08-06T11:01:20;6.25;;;5.65;;
23317;SDS011;11831;55.918;37.746;2023-08-06T11:03:48;7.80;;;5.90;;
23317;SDS011;11831;55.918;37.746;2023-08-06T11:06:22;7.18;;;5.55;;
23317;SDS011;11831;55.918;37.746;2023-08-06T11:08:52;6.75;;;5.30;;
23317;SDS011;11831;55.918;37.746;2023-08-06T11:11:19;8.15;;;5.25;;
23317;SDS011;11831;55.918;37.746;2023-08-06T11:13:47;7.62;;;5.60;;
23317;SDS011;11831;55.918;37.746;2023-08-06T11:16:18;7.75;;;5.10;;
23317;SDS011;11831;55.918;37.746;2023-08-06T11:18:46;7.43;;;5.10;;
23317;SDS011;11831;55.918;37.746;2023-08-06T11:21:13;6.05;;;5.03;;
23317;SDS011;11831;55.918;37.746;2023-08-06T11:23:40;6.55;;;5.20;;
23317;SDS011;11831;55.918;37.746;2023-08-06T11:26:07;5.72;;;5.05;;
23317;SDS011;11831;55.918;37.746;2023-08-06T11:28:33;5.70;;;5.07;;
23317;SDS011;11831;55.918;37.746;2023-08-06T11:31:00;6.32;;;5.12;;
23317;SDS011;11831;55.918;37.746;2023-08-06T11:33:28;6.60;;;4.97;;
23317;SDS011;11831;55.918;37.746;2023-08-06T11:35:55;8.00;;;7.20;;
23317;SDS011;11831;55.918;37.746;2023-08-06T11:38:29;5.90;;;4.90;;
23317;SDS011;11831;55.918;37.746;2023-08-06T11:40:56;8.43;;;5.30;;
23317;SDS011;11831;55.918;37.746;2023-08-06T11:43:22;9.75;;;5.87;;
23317;SDS011;11831;55.918;37.746;2023-08-06T11:45:49;10.10;;;5.62;;
23317;SDS011;11831;55.918;37.746;2023-08-06T11:48:16;5.80;;;5.22;;
23317;SDS011;11831;55.918;37.746;2023-08-06T11:50:43;8.13;;;6.03;;
23317;SDS011;11831;55.918;37.746;2023-08-06T11:53:12;9.95;;;6.32;;
23317;SDS011;11831;55.918;37.746;2023-08-06T11:55:40;7.82;;;5.85;;
23317;SDS011;11831;55.918;37.746;2023-08-06T11:58:07;6.18;;;5.60;;
23317;SDS011;11831;55.918;37.746;2023-08-06T12:00:33;9.48;;;5.90;;
23317;SDS011;11831;55.918;37.746;2023-08-06T12:02:59;6.85;;;6.15;;
23317;SDS011;11831;55.918;37.746;2023-08-06T12:05:29;6.43;;;5.57;;
23317;SDS011;11831;55.918;37.746;2023-08-06T12:07:57;6.32;;;5.82;;
23317;SDS011;11831;55.918;37.746;2023-08-06T12:10:25;7.87;;;6.30;;
23317;SDS011;11831;55.918;37.746;2023-08-06T12:12:53;6.50;;;5.90;;
23317;SDS011;11831;55.918;37.746;2023-08-06T12:15:19;6.32;;;5.80;;
23317;SDS011;11831;55.918;37.746;2023-08-06T12:17:46;8.52;;;6.50;;
23317;SDS011;11831;55.918;37.746;2023-08-06T12:20:13;7.68;;;6.40;;
23317;SDS011;11831;55.918;37.746;2023-08-06T12:22:39;7.90;;;6.40;;
23317;SDS011;11831;55.918;37.746;2023-08-06T12:25:07;9.48;;;6.93;;
23317;SDS011;11831;55.918;37.746;2023-08-06T12:27:35;6.65;;;6.03;;
23317;SDS011;11831;55.918;37.746;2023-08-06T12:30:02;7.75;;;6.95;;
23317;SDS011;11831;55.918;37.746;2023-08-06T12:32:31;8.40;;;6.68;;
23317;SDS011;11831;55.918;37.746;2023-08-06T12:34:58;9.15;;;6.12;;
23317;SDS011;11831;55.918;37.746;2023-08-06T12:37:24;6.65;;;6.05;;
23317;SDS011;11831;55.918;37.746;2023-08-06T12:39:51;8.50;;;5.87;;
23317;SDS011;11831;55.918;37.746;2023-08-06T12:42:17;8.27;;;6.43;;
23317;SDS011;11831;55.918;37.746;2023-08-06T12:44:44;6.68;;;5.95;;
23317;SDS011;11831;55.918;37.746;2023-08-06T12:47:11;7.10;;;6.50;;
23317;SDS011;11831;55.918;37.746;2023-08-06T12:49:37;9.32;;;6.40;;
23317;SDS011;11831;55.918;37.746;2023-08-06T12:52:04;12.98;;;6.35;;
23317;SDS011;11831;55.918;37.746;2023-08-06T12:54:32;7.53;;;6.10;;
23317;SDS011;11831;55.918;37.746;2023-08-06T12:57:05;10.77;;;6.35;;
23317;SDS011;11831;55.918;37.746;2023-08-06T12:59:32;9.43;;;6.68;;
23317;SDS011;11831;55.918;37.746;2023-08-06T13:02:05;7.03;;;6.50;;
23317;SDS011;11831;55.918;37.746;2023-08-06T13:04:32;11.18;;;6.30;;
23317;SDS011;11831;55.918;37.746;2023-08-06T13:07:00;8.48;;;6.82;;
23317;SDS011;11831;55.918;37.746;2023-08-06T13:09:26;10.50;;;6.85;;
23317;SDS011;11831;55.918;37.746;2023-08-06T13:11:53;8.48;;;6.57;;
23317;SDS011;11831;55.918;37.746;2023-08-06T13:14:20;7.12;;;6.43;;
23317;SDS011;11831;55.918;37.746;2023-08-06T13:16:46;8.63;;;6.43;;
23317;SDS011;11831;55.918;37.746;2023-08-06T13:19:13;7.15;;;6.45;;
23317;SDS011;11831;55.918;37.746;2023-08-06T13:24:06;6.82;;;5.95;;
23317;SDS011;11831;55.918;37.746;2023-08-06T13:26:33;6.57;;;5.97;;
23317;SDS011;11831;55.918;37.746;2023-08-06T13:29:00;6.87;;;6.28;;
23317;SDS011;11831;55.918;37.746;2023-08-06T13:31:27;8.38;;;6.55;;
23317;SDS011;11831;55.918;37.746;2023-08-06T13:33:54;6.80;;;6.10;;
23317;SDS011;11831;55.918;37.746;2023-08-06T13:36:21;7.93;;;6.95;;
23317;SDS011;11831;55.918;37.746;2023-08-06T13:38:48;13.10;;;6.35;;
23317;SDS011;11831;55.918;37.746;2023-08-06T13:41:15;8.80;;;6.10;;
23317;SDS011;11831;55.918;37.746;2023-08-06T13:43:42;6.90;;;5.50;;
23317;SDS011;11831;55.918;37.746;2023-08-06T13:46:10;6.68;;;5.95;;
23317;SDS011;11831;55.918;37.746;2023-08-06T13:48:44;9.60;;;5.62;;
23317;SDS011;11831;55.918;37.746;2023-08-06T13:51:11;6.70;;;6.10;;
23317;SDS011;11831;55.918;37.746;2023-08-06T13:53:38;7.20;;;6.32;;
23317;SDS011;11831;55.918;37.746;2023-08-06T13:56:08;8.90;;;5.72;;
23317;SDS011;11831;55.918;37.746;2023-08-06T13:58:36;6.95;;;5.87;;
23317;SDS011;11831;55.918;37.746;2023-08-06T14:01:03;8.57;;;7.55;;
23317;SDS011;11831;55.918;37.746;2023-08-06T14:03:29;6.93;;;5.60;;
23317;SDS011;11831;55.918;37.746;2023-08-06T14:05:55;5.55;;;5.00;;
23317;SDS011;11831;55.918;37.746;2023-08-06T14:08:25;7.50;;;5.65;;
23317;SDS011;11831;55.918;37.746;2023-08-06T14:10:52;7.87;;;5.85;;
23317;SDS011;11831;55.918;37.746;2023-08-06T14:13:19;6.85;;;6.05;;
23317;SDS011;11831;55.918;37.746;2023-08-06T14:15:47;7.78;;;5.97;;
23317;SDS011;11831;55.918;37.746;2023-08-06T14:18:13;7.07;;;6.40;;
23317;SDS011;11831;55.918;37.746;2023-08-06T14:20:41;7.78;;;6.20;;
23317;SDS011;11831;55.918;37.746;2023-08-06T14:23:08;8.38;;;6.80;;
23317;SDS011;11831;55.918;37.746;2023-08-06T14:25:34;7.45;;;6.00;;
23317;SDS011;11831;55.918;37.746;2023-08-06T14:28:01;7.85;;;6.40;;
23317;SDS011;11831;55.918;37.746;2023-08-06T14:30:27;6.57;;;5.97;;
23317;SDS011;11831;55.918;37.746;2023-08-06T14:32:53;7.97;;;6.32;;
23317;SDS011;11831;55.918;37.746;2023-08-06T14:35:20;9.23;;;6.75;;
23317;SDS011;11831;55.918;37.746;2023-08-06T14:37:46;8.43;;;6.50;;
23317;SDS011;11831;55.918;37.746;2023-08-06T14:40:12;7.82;;;5.82;;
23317;SDS011;11831;55.918;37.746;2023-08-06T14:42:38;9.70;;;6.78;;
23317;SDS011;11831;55.918;37.746;2023-08-06T14:45:05;8.93;;;6.40;;
23317;SDS011;11831;55.918;37.746;2023-08-06T14:47:32;10.20;;;6.35;;
23317;SDS011;11831;55.918;37.746;2023-08-06T14:49:58;6.97;;;6.37;;
23317;SDS011;11831;55.918;37.746;2023-08-06T14:52:25;10.50;;;6.87;;
23317;SDS011;11831;55.918;37.746;2023-08-06T14:54:51;8.48;;;6.03;;
23317;SDS011;11831;55.918;37.746;2023-08-06T14:57:21;10.95;;;6.15;;